Data for 03/13/2018

Time Sea-Level Adjusted Pressure Absolute Pressure Temperature Relative Humidity Dew Point   
(mb) (inHg) (mb) (inHg) (C) (F) (%) (C) (F)
00:05 1024 30.24 853 25.19 0.1 32.3 32 -14.7 5.5
00:10 1024 30.24 853 25.19 -0.2 31.7 33 -14.6 5.7
00:15 1024 30.24 853 25.19 -0.4 31.4 31 -15.5 4.1
00:20 1024 30.24 853 25.19 0.1 32.2 30 -15.3 4.4
00:25 1024 30.24 853 25.19 0.3 32.5 32 -14.5 5.8
00:30 1024 30.24 853 25.19 0.3 32.6 33 -14 6.7
00:35 1024 30.24 853 25.19 0.3 32.6 32 -14.4 6.1
00:40 1024 30.24 853 25.19 0.2 32.4 32 -14.7 5.5
00:45 1024 30.24 853 25.19 0.1 32.2 32 -14.6 5.8
00:50 1024 30.24 853 25.19 -0.1 31.8 34 -14.1 6.6
00:55 1024 30.24 853 25.19 -0.3 31.4 33 -14.7 5.6
01:00 1024 30.24 853 25.19 -0.4 31.3 33 -14.6 5.7
01:05 1024 30.24 853 25.19 -0.3 31.5 32 -15.3 4.5
01:10 1024 30.24 853 25.19 -0.4 31.3 31 -15.7 3.7
01:15 1024 30.24 853 25.19 -0.4 31.2 32 -15.3 4.5
01:20 1024 30.24 853 25.19 -1.1 30 37 -14.1 6.6
01:25 1024 30.24 853 25.19 -1.3 29.7 34 -15.2 4.6
01:30 1024 30.24 853 25.19 -1.3 29.7 35 -14.9 5.2
01:35 1024 30.24 853 25.19 -1.5 29.3 34 -15.4 4.2
01:40 1024 30.24 853 25.19 -1.1 30.1 34 -15.1 4.8
01:45 1024 30.24 853 25.19 -0.7 30.7 37 -13.8 7.1
01:50 1024 30.24 853 25.19 -0.9 30.4 36 -14.3 6.3
01:55 1024 30.24 853 25.19 -1.1 30 37 -14 6.8
02:00 1024 30.24 853 25.19 -1.3 29.6 38 -13.9 7
02:05 1024 30.24 853 25.19 -1.6 29.1 43 -12.7 9.1
02:10 1024 30.24 853 25.19 -1.5 29.3 38 -14.1 6.7
02:15 1024 30.24 853 25.19 -1.5 29.3 37 -14.3 6.3
02:20 1024 30.24 853 25.19 -1.4 29.4 38 -14.2 6.5
02:25 1024 30.24 853 25.19 -1.5 29.4 39 -13.7 7.3
02:30 1024 30.24 853 25.19 -1.5 29.2 38 -14.1 6.7
02:35 1024 30.24 853 25.19 -1.6 29.1 38 -14.2 6.4
02:40 1024 30.24 853 25.19 -1.4 29.5 38 -14 6.8
02:45 1024 30.24 853 25.19 -1.5 29.2 42 -13 8.7
02:50 1024 30.24 853 25.19 -1.6 29.1 43 -12.7 9.2
02:55 1024 30.24 853 25.19 -1.5 29.2 43 -12.6 9.2
03:00 1023 30.21 853 25.19 -1.6 29.2 45 -12 10.5
03:05 1023 30.21 853 25.19 -1.6 29 44 -12.4 9.7
03:10 1023 30.21 853 25.19 -1.7 28.9 44 -12.5 9.6
03:15 1023 30.21 853 25.19 -1.8 28.8 44 -12.5 9.5
03:20 1023 30.21 853 25.19 -1.4 29.5 42 -12.7 9.2
03:25 1023 30.21 852 25.16 -1.4 29.4 42 -12.6 9.2
03:30 1023 30.21 852 25.16 -1.6 29.1 42 -12.8 9
03:35 1023 30.21 852 25.16 -1.6 29.2 42 -12.9 8.9
03:40 1023 30.21 852 25.16 -1.5 29.3 44 -12.4 9.8
03:45 1023 30.21 852 25.16 -1.1 30 41 -12.8 8.9
03:50 1023 30.21 852 25.16 -1 30.2 43 -12.1 10.2
03:55 1023 30.21 852 25.16 -1 30.2 43 -11.9 10.5
04:00 1023 30.21 852 25.16 -1.4 29.5 45 -12 10.5
04:05 1023 30.21 852 25.16 -1.7 29 44 -12.3 9.9
04:10 1023 30.21 852 25.16 -1.8 28.7 45 -12.2 10
04:15 1023 30.21 852 25.16 -1.7 29 44 -12.3 9.9
04:20 1023 30.21 852 25.16 -1.7 29 44 -12.3 9.8
04:25 1023 30.21 852 25.16 -1.5 29.2 44 -12.2 10
04:30 1023 30.21 852 25.16 -1.5 29.3 44 -12.4 9.7
04:35 1023 30.21 852 25.16 -1.5 29.4 43 -12.4 9.7
04:40 1023 30.21 852 25.16 -1.6 29.2 43 -12.7 9.2
04:45 1023 30.21 852 25.16 -1.9 28.5 39 -14 6.8
04:50 1023 30.21 852 25.16 -1.7 28.9 40 -13.8 7.2
04:55 1023 30.21 852 25.16 -1.5 29.3 42 -12.8 8.9
05:00 1023 30.21 852 25.16 -1.4 29.5 40 -13.3 8
05:05 1023 30.21 852 25.16 -1.7 29 42 -13.1 8.4
05:10 1023 30.21 852 25.16 -2.2 28.1 44 -12.8 8.9
05:15 1023 30.21 852 25.16 -2.7 27.2 46 -12.9 8.8
05:20 1023 30.21 852 25.16 -2.9 26.8 45 -13.1 8.4
05:25 1023 30.21 852 25.16 -2.7 27.2 44 -13.3 8.1
05:30 1023 30.21 852 25.16 -2.3 27.8 43 -13.2 8.2
05:35 1023 30.21 852 25.16 -2.1 28.1 44 -13 8.6
05:40 1023 30.21 852 25.16 -2.4 27.7 44 -13 8.6
05:45 1023 30.21 852 25.16 -1.8 28.8 42 -13 8.6
05:50 1023 30.21 852 25.16 -2.4 27.7 46 -12.6 9.2
05:55 1023 30.21 852 25.16 -2.9 26.8 46 -13 8.6
06:00 1023 30.21 852 25.16 -3 26.7 47 -12.8 9
06:05 1023 30.21 852 25.16 -3.2 26.3 46 -13.4 8
06:10 1023 30.21 852 25.16 -2.5 27.5 43 -13.3 8
06:15 1023 30.21 852 25.16 -2.2 28.1 43 -13.1 8.4
06:20 1023 30.21 852 25.16 -2 28.4 41 -13.6 7.6
06:25 1023 30.21 852 25.16 -1.9 28.5 42 -13.3 8
06:30 1023 30.21 852 25.16 -1.9 28.6 44 -12.6 9.4
06:35 1023 30.21 852 25.16 -2.1 28.2 45 -12.5 9.4
06:40 1023 30.21 852 25.16 -2.3 27.8 46 -12.3 9.8
06:45 1023 30.21 852 25.16 -2.5 27.5 49 -11.8 10.8
06:50 1023 30.21 852 25.16 -2.7 27.2 51 -11.4 11.4
06:55 1023 30.21 852 25.16 -2.6 27.3 51 -11.5 11.3
07:00 1023 30.21 852 25.16 -2.6 27.3 49 -11.8 10.7
07:05 1023 30.21 852 25.16 -2.8 27 50 -11.9 10.6
07:10 1023 30.21 852 25.16 -3.1 26.4 53 -11.5 11.3
07:15 1023 30.21 852 25.16 -3.1 26.4 53 -11.3 11.6
07:20 1023 30.21 852 25.16 -2.9 26.7 51 -11.7 10.9
07:25 1023 30.21 852 25.16 -3 26.5 50 -12 10.5
07:30 1023 30.21 852 25.16 -3.2 26.2 51 -12 10.5
07:35 1023 30.21 852 25.16 -3.1 26.4 49 -12.4 9.7
07:40 1023 30.21 852 25.16 -2.9 26.8 48 -12.4 9.6
07:45 1023 30.21 852 25.16 -2.8 26.9 49 -12.1 10.2
07:50 1023 30.21 852 25.16 -3.2 26.3 52 -11.8 10.8
07:55 1023 30.21 852 25.16 -3.3 26 52 -11.8 10.8
08:00 1023 30.21 852 25.16 -3.2 26.3 52 -11.6 11.1
08:05 1023 30.21 852 25.16 -3.1 26.3 52 -11.6 11.1
08:10 1023 30.21 852 25.16 -3 26.6 51 -11.8 10.7
08:15 1023 30.21 852 25.16 -2.7 27.2 49 -12.1 10.3
08:20 1023 30.21 852 25.16 -2.3 27.8 47 -12.1 10.2
08:25 1022 30.18 852 25.16 -2.1 28.3 46 -12.2 10
08:30 1022 30.18 852 25.16 -2 28.3 47 -11.9 10.6
08:35 1022 30.18 852 25.16 -2.1 28.2 48 -11.8 10.8
08:40 1022 30.18 852 25.16 -2 28.4 48 -11.7 10.9
08:45 1022 30.18 852 25.16 -1.6 29.1 46 -11.7 11
08:50 1022 30.18 852 25.16 -1.1 29.9 44 -11.9 10.7
08:55 1022 30.18 852 25.16 -0.4 31.2 42 -11.9 10.7
09:00 1022 30.18 852 25.16 0.1 32.1 42 -11.4 11.4
09:05 1022 30.18 852 25.16 0.4 32.8 40 -11.8 10.8
09:10 1022 30.18 852 25.16 0.9 33.5 39 -11.7 11
09:15 1022 30.18 851 25.13 0.9 33.6 40 -11.2 11.8
09:20 1022 30.18 851 25.13 1 33.7 41 -11 12.3
09:25 1022 30.18 851 25.13 1.1 34 41 -10.8 12.5
09:30 1022 30.18 851 25.13 1.2 34.2 40 -11.1 12
09:35 1022 30.18 851 25.13 1.5 34.7 36 -12 10.4
09:40 1022 30.18 851 25.13 1.5 34.6 39 -10.9 12.4
09:45 1022 30.18 851 25.13 1.4 34.5 39 -11 12.2
09:50 1022 30.18 851 25.13 1.1 34 39 -11.3 11.7
09:55 1022 30.18 851 25.13 0.6 33.1 39 -11.8 10.7
10:00 1022 30.18 851 25.13 1.3 34.4 37 -11.7 11
10:05 1022 30.18 851 25.13 1.9 35.4 36 -11.5 11.2
10:10 1022 30.18 851 25.13 2.2 35.9 36 -11.4 11.4
10:15 1022 30.18 851 25.13 2.8 37.1 36 -10.8 12.5
10:20 1022 30.18 851 25.13 3.7 38.7 32 -11.4 11.5
10:25 1022 30.18 851 25.13 3.6 38.4 34 -11 12.2
10:30 1022 30.18 851 25.13 3.8 38.9 33 -10.9 12.4
10:35 1022 30.18 851 25.13 4 39.1 32 -11.3 11.7
10:40 1022 30.18 851 25.13 4.4 39.9 32 -11.1 12.1
10:45 1022 30.18 851 25.13 4.9 40.8 31 -10.7 12.7
10:50 1022 30.18 851 25.13 4.5 40 32 -10.7 12.7
10:55 1022 30.18 851 25.13 4.4 39.9 33 -10.5 13.1
11:00 1022 30.18 851 25.13 4.4 39.8 33 -10.5 13
11:05 1022 30.18 851 25.13 3.3 37.9 36 -10.3 13.5
11:10 1022 30.18 851 25.13 3.8 38.8 36 -10.1 13.9
11:15 1022 30.18 851 25.13 3.7 38.7 35 -10.5 13.1
11:20 1022 30.18 851 25.13 3.8 38.8 33 -10.9 12.3
11:25 1022 30.18 851 25.13 4 39.3 34 -10.6 12.8
11:30 1022 30.18 851 25.13 4.1 39.3 35 -10 14.1
11:35 1022 30.18 851 25.13 4.2 39.6 35 -10.1 13.9
11:40 1022 30.18 851 25.13 4.2 39.6 34 -10.3 13.5
11:45 1022 30.18 851 25.13 5.1 41.2 32 -10.1 13.8
11:50 1022 30.18 851 25.13 4.9 40.8 34 -9.7 14.5
11:55 1021 30.15 851 25.13 4.9 40.8 33 -10.1 13.9
12:00 1021 30.15 851 25.13 5.4 41.6 35 -9 15.9
12:05 1021 30.15 850 25.1 5 41 33 -10.2 13.7
12:10 1021 30.15 850 25.1 5.9 42.6 31 -10 14
12:15 1021 30.15 850 25.1 6.5 43.7 30 -9.8 14.3
12:20 1021 30.15 850 25.1 6.4 43.5 31 -9.6 14.7
12:25 1021 30.15 850 25.1 6.5 43.8 32 -9 15.9
12:30 1021 30.15 850 25.1 6.6 44 31 -9.1 15.6
12:35 1021 30.15 850 25.1 6.8 44.2 31 -9.2 15.5
12:40 1021 30.15 850 25.1 6.8 44.3 31 -9.2 15.4
12:45 1021 30.15 850 25.1 6.6 43.9 32 -8.9 15.9
12:50 1021 30.15 850 25.1 6.9 44.4 32 -8.6 16.5
12:55 1021 30.15 850 25.1 7 44.6 33 -8.4 16.9
13:00 1021 30.15 850 25.1 6.3 43.3 34 -8.3 17
13:05 1021 30.15 850 25.1 6.1 42.9 35 -8.3 17.1
13:10 1021 30.15 850 25.1 6 42.7 34 -8.7 16.4
13:15 1021 30.15 850 25.1 6.2 43.2 33 -8.9 16
13:20 1021 30.15 850 25.1 6.7 44 33 -8.5 16.7
13:25 1021 30.15 850 25.1 6.7 44.1 34 -8.1 17.4
13:30 1021 30.15 850 25.1 6.8 44.3 33 -8.5 16.8
13:35 1021 30.15 850 25.1 7 44.6 33 -8.1 17.4
13:40 1020 30.12 850 25.1 7.3 45.2 32 -8.4 16.9
13:45 1020 30.12 850 25.1 7 44.6 33 -8.4 16.9
13:50 1020 30.12 850 25.1 7.3 45.2 31 -8.6 16.5
13:55 1020 30.12 849 25.07 7.8 46 31 -8.1 17.3
14:00 1020 30.12 849 25.07 8 46.4 32 -7.8 18
14:05 1020 30.12 849 25.07 7.7 45.9 32 -8 17.6
14:10 1020 30.12 849 25.07 7.9 46.2 30 -8.5 16.7
14:15 1020 30.12 849 25.07 8 46.3 30 -8.7 16.4
14:20 1020 30.12 849 25.07 8.2 46.8 30 -8.4 16.9
14:25 1020 30.12 849 25.07 8.2 46.8 30 -8.5 16.7
14:30 1020 30.12 849 25.07 7.9 46.3 29 -9 15.9
14:35 1020 30.12 849 25.07 8.1 46.5 29 -8.7 16.3
14:40 1020 30.12 849 25.07 8.8 47.8 28 -8.8 16.2
14:45 1020 30.12 849 25.07 8.7 47.6 30 -8 17.5
14:50 1020 30.12 849 25.07 8.4 47.1 30 -8.1 17.4
14:55 1020 30.12 849 25.07 8.2 46.8 28 -9.3 15.2
15:00 1020 30.12 849 25.07 8.4 47.1 30 -8.4 16.9
15:05 1020 30.12 849 25.07 8.6 47.5 25 -10.1 13.8
15:10 1020 30.12 849 25.07 7.9 46.2 27 -9.9 14.1
15:15 1019 30.09 849 25.07 8.3 46.9 27 -9.7 14.5
15:20 1019 30.09 849 25.07 7.8 46 27 -10.1 13.9
15:25 1019 30.09 849 25.07 8.7 47.6 27 -9.5 14.9
15:30 1019 30.09 849 25.07 8.9 48 27 -9 15.8
15:35 1019 30.09 849 25.07 8.8 47.9 27 -9.3 15.2
15:40 1019 30.09 849 25.07 8.9 48.1 27 -9.2 15.4
15:45 1019 30.09 848 25.04 9 48.1 28 -8.8 16.2
15:50 1019 30.09 848 25.04 9.1 48.4 27 -8.8 16.2
15:55 1019 30.09 848 25.04 8.6 47.5 27 -9.2 15.4
16:00 1019 30.09 848 25.04 8.8 47.8 28 -8.8 16.2
16:05 1019 30.09 848 25.04 9.5 49.1 27 -8.6 16.6
16:10 1019 30.09 848 25.04 9.1 48.4 27 -9.1 15.6
16:15 1019 30.09 848 25.04 8.3 47 28 -9.3 15.3
16:20 1019 30.09 848 25.04 8.8 47.9 28 -8.5 16.6
16:25 1019 30.09 848 25.04 9.8 49.6 26 -8.7 16.3
16:30 1019 30.09 848 25.04 9.6 49.2 27 -8.6 16.6
16:35 1018 30.06 848 25.04 9.4 48.9 27 -8.8 16.1
16:40 1018 30.06 848 25.04 8.9 48.1 26 -9.4 15
16:45 1018 30.06 848 25.04 9.1 48.4 26 -9.5 14.8
16:50 1018 30.06 848 25.04 8.8 47.8 25 -10.1 13.7
16:55 1018 30.06 847 25.01 9.1 48.3 23 -10.8 12.6
17:00 1018 30.06 847 25.01 9.4 48.9 23 -10.7 12.8
17:05 1018 30.06 847 25.01 9.5 49.2 23 -10.6 12.9
17:10 1018 30.06 847 25.01 9.2 48.6 23 -11 12.2
17:15 1018 30.06 847 25.01 9.5 49 23 -10.8 12.5
17:20 1018 30.06 847 25.01 9.8 49.6 23 -10.5 13.2
17:25 1018 30.06 847 25.01 9.9 49.9 22 -10.7 12.8
17:30 1018 30.06 847 25.01 10.1 50.1 22 -10.7 12.8
17:35 1018 30.06 847 25.01 10.3 50.5 22 -10.4 13.2
17:40 1018 30.06 847 25.01 10.2 50.3 22 -10.5 13.1
17:45 1017 30.03 847 25.01 10.3 50.6 22 -10.7 12.7
17:50 1017 30.03 847 25.01 10.1 50.1 22 -10.4 13.2
17:55 1017 30.03 847 25.01 10.3 50.6 23 -10.2 13.7
18:00 1017 30.03 847 25.01 10.2 50.3 21 -11 12.2
18:05 1017 30.03 846 24.98 9.9 49.9 22 -11 12.1
18:10 1017 30.03 846 24.98 9.5 49.1 22 -11.2 11.9
18:15 1017 30.03 846 24.98 9.8 49.6 21 -11.3 11.7
18:20 1017 30.03 846 24.98 9.6 49.3 23 -10.7 12.8
18:25 1017 30.03 846 24.98 9.8 49.7 21 -11.5 11.4
18:30 1017 30.03 846 24.98 9.4 48.9 22 -11.1 12
18:35 1017 30.03 846 24.98 9.2 48.5 23 -11.1 12
18:40 1017 30.03 846 24.98 9 48.3 23 -11 12.1
18:45 1017 30.03 846 24.98 8.9 47.9 25 -10.1 13.9
18:50 1017 30.03 846 24.98 8.7 47.7 25 -10.3 13.4
18:55 1017 30.03 846 24.98 8.3 46.9 27 -9.8 14.3
19:00 1017 30.03 846 24.98 8 46.4 28 -9.5 14.9
19:05 1017 30.03 846 24.98 7.7 45.8 30 -9 15.8
19:10 1017 30.03 846 24.98 7.6 45.6 30 -8.8 16.2
19:15 1017 30.03 846 24.98 7.2 44.9 32 -8.6 16.5
19:20 1017 30.03 846 24.98 6.6 43.8 35 -7.9 17.8
19:25 1017 30.03 846 24.98 5.8 42.4 37 -7.8 18
19:30 1017 30.03 846 24.98 5.2 41.4 38 -8 17.6
19:35 1017 30.03 846 24.98 5.3 41.6 38 -7.8 17.9
19:40 1017 30.03 846 24.98 5.2 41.4 37 -8.3 17.1
19:45 1017 30.03 846 24.98 5.4 41.6 36 -8.4 16.9
19:50 1017 30.03 846 24.98 5.6 42.1 36 -8.2 17.3
19:55 1017 30.03 846 24.98 5.6 42.2 35 -8.5 16.6
20:00 1017 30.03 846 24.98 5.3 41.6 37 -8.3 17.1
20:05 1017 30.03 846 24.98 4.9 40.8 38 -8.4 16.9
20:10 1017 30.03 846 24.98 4.4 39.9 40 -7.9 17.7
20:15 1017 30.03 846 24.98 4 39.2 42 -7.8 18
20:20 1017 30.03 846 24.98 4 39.1 40 -8.4 16.8
20:25 1017 30.03 846 24.98 3.8 38.9 41 -8.2 17.2
20:30 1017 30.03 846 24.98 3.9 39 40 -8.4 16.9
20:35 1017 30.03 846 24.98 3.5 38.3 42 -8.2 17.2
20:40 1017 30.03 846 24.98 3.5 38.3 37 -9.8 14.4
20:45 1017 30.03 846 24.98 4.2 39.6 36 -9.5 14.8
20:50 1017 30.03 846 24.98 4.1 39.3 38 -9.1 15.6
20:55 1017 30.03 846 24.98 4 39.1 38 -9 15.7
21:00 1017 30.03 846 24.98 3.9 39.1 40 -8.6 16.6
21:05 1016 30 846 24.98 4 39.2 41 -8 17.5
21:10 1016 30 846 24.98 4.1 39.4 43 -7.3 18.9
21:15 1016 30 846 24.98 4.6 40.3 42 -7.2 19.1
21:20 1016 30 846 24.98 4.7 40.4 43 -6.9 19.6
21:25 1016 30 846 24.98 4.5 40.1 44 -6.8 19.7
21:30 1016 30 846 24.98 4.5 40 43 -7.1 19.2
21:35 1016 30 846 24.98 4.6 40.3 42 -7.1 19.2
21:40 1016 30 845 24.95 4.7 40.5 43 -6.9 19.5
21:45 1016 30 845 24.95 4.6 40.3 44 -6.7 19.9
21:50 1016 30 846 24.98 4.3 39.8 45 -6.7 20
21:55 1016 30 846 24.98 4.2 39.5 46 -6.4 20.4
22:00 1016 30 846 24.98 4.5 40 45 -6.4 20.5
22:05 1016 30 846 24.98 4.6 40.3 45 -6.4 20.5
22:10 1016 30 845 24.95 4.5 40 45 -6.6 20.2
22:15 1016 30 845 24.95 4.4 39.9 44 -6.9 19.5
22:20 1016 30 845 24.95 4.4 39.8 44 -6.8 19.8
22:25 1016 30 845 24.95 4.1 39.3 44 -7.1 19.3
22:30 1016 30 845 24.95 4 39.1 44 -7.2 19.1
22:35 1016 30 845 24.95 3.8 38.8 44 -7.3 18.8
22:40 1016 30 845 24.95 3.8 38.9 44 -7.2 19.1
22:45 1016 30 845 24.95 4 39.1 44 -7.2 19.1
22:50 1016 30 845 24.95 3.9 39 43 -7.5 18.5
22:55 1016 30 845 24.95 3.7 38.7 45 -7 19.4
23:00 1016 30 845 24.95 3.7 38.7 46 -6.7 19.9
23:05 1016 30 845 24.95 3.9 39 46 -6.7 20
23:10 1016 30 845 24.95 3.9 39 46 -6.7 19.9
23:15 1016 30 845 24.95 3.7 38.7 46 -6.8 19.7
23:20 1016 30 845 24.95 3.7 38.7 47 -6.7 19.9
23:25 1016 30 845 24.95 3.6 38.4 47 -6.7 20
23:30 1016 30 845 24.95 3.7 38.6 46 -6.8 19.7
23:35 1016 30 845 24.95 3.8 38.8 46 -6.7 20
23:40 1016 30 845 24.95 3.7 38.6 46 -6.9 19.7
23:45 1016 30 845 24.95 3.7 38.7 47 -6.7 20
23:50 1015 29.97 845 24.95 3.6 38.5 47 -6.7 19.9
23:55 1015 29.97 845 24.95 3.8 38.9 44 -7.2 19
24:00 1015 29.97 845 24.95 4 39.2 45 -7 19.4